sensor_id;sensor_type;location;lat;lon;timestamp;P1;durP1;ratioP1;P2;durP2;ratioP2
38427;SDS011;24211;49.980;19.776;2022-09-03T00:00:47;6.15;;;1.73;;
38427;SDS011;24211;49.980;19.776;2022-09-03T00:06:20;4.30;;;1.75;;
38427;SDS011;24211;49.980;19.776;2022-09-03T00:08:57;5.18;;;2.10;;
38427;SDS011;24211;49.980;19.776;2022-09-03T00:14:45;5.43;;;1.88;;
38427;SDS011;24211;49.980;19.776;2022-09-03T00:17:28;7.82;;;2.47;;
38427;SDS011;24211;49.980;19.776;2022-09-03T00:22:52;6.32;;;1.83;;
38427;SDS011;24211;49.980;19.776;2022-09-03T00:25:26;5.28;;;1.67;;
38427;SDS011;24211;49.980;19.776;2022-09-03T00:28:12;5.38;;;1.90;;
38427;SDS011;24211;49.980;19.776;2022-09-03T00:30:49;3.53;;;1.40;;
38427;SDS011;24211;49.980;19.776;2022-09-03T00:33:27;4.40;;;1.70;;
38427;SDS011;24211;49.980;19.776;2022-09-03T00:38:30;5.22;;;1.55;;
38427;SDS011;24211;49.980;19.776;2022-09-03T00:44:21;3.40;;;1.35;;
38427;SDS011;24211;49.980;19.776;2022-09-03T00:47:08;3.85;;;1.20;;
38427;SDS011;24211;49.980;19.776;2022-09-03T00:55:36;3.42;;;1.45;;
38427;SDS011;24211;49.980;19.776;2022-09-03T00:58:54;3.28;;;1.20;;
38427;SDS011;24211;49.980;19.776;2022-09-03T01:02:30;3.88;;;1.20;;
38427;SDS011;24211;49.980;19.776;2022-09-03T01:13:22;2.70;;;0.98;;
38427;SDS011;24211;49.980;19.776;2022-09-03T01:16:06;3.03;;;1.13;;
38427;SDS011;24211;49.980;19.776;2022-09-03T01:18:59;3.10;;;1.13;;
38427;SDS011;24211;49.980;19.776;2022-09-03T01:25:00;2.58;;;1.17;;
38427;SDS011;24211;49.980;19.776;2022-09-03T01:28:29;3.08;;;1.23;;
38427;SDS011;24211;49.980;19.776;2022-09-03T01:37:31;3.80;;;1.23;;
38427;SDS011;24211;49.980;19.776;2022-09-03T01:43:00;3.30;;;1.30;;
38427;SDS011;24211;49.980;19.776;2022-09-03T01:49:04;3.05;;;1.20;;
38427;SDS011;24211;49.980;19.776;2022-09-03T01:51:56;3.28;;;1.30;;
38427;SDS011;24211;49.980;19.776;2022-09-03T01:58:13;3.70;;;1.40;;
38427;SDS011;24211;49.980;19.776;2022-09-03T02:00:52;2.53;;;1.13;;
38427;SDS011;24211;49.980;19.776;2022-09-03T02:03:35;3.55;;;1.35;;
38427;SDS011;24211;49.980;19.776;2022-09-03T02:06:08;3.40;;;1.35;;
38427;SDS011;24211;49.980;19.776;2022-09-03T02:08:37;3.75;;;1.40;;
38427;SDS011;24211;49.980;19.776;2022-09-03T02:11:05;3.70;;;1.35;;
38427;SDS011;24211;49.980;19.776;2022-09-03T02:14:09;4.03;;;1.50;;
38427;SDS011;24211;49.980;19.776;2022-09-03T02:16:30;4.00;;;1.63;;
38427;SDS011;24211;49.980;19.776;2022-09-03T02:19:06;4.35;;;1.65;;
38427;SDS011;24211;49.980;19.776;2022-09-03T02:21:43;3.70;;;1.50;;
38427;SDS011;24211;49.980;19.776;2022-09-03T02:24:18;3.08;;;1.40;;
38427;SDS011;24211;49.980;19.776;2022-09-03T02:26:45;3.38;;;1.40;;
38427;SDS011;24211;49.980;19.776;2022-09-03T02:29:14;2.80;;;1.30;;
38427;SDS011;24211;49.980;19.776;2022-09-03T02:31:43;3.63;;;1.40;;
38427;SDS011;24211;49.980;19.776;2022-09-03T02:34:10;3.05;;;1.27;;
38427;SDS011;24211;49.980;19.776;2022-09-03T02:36:39;4.25;;;1.58;;
38427;SDS011;24211;49.980;19.776;2022-09-03T02:39:12;4.00;;;1.45;;
38427;SDS011;24211;49.980;19.776;2022-09-03T02:41:41;4.35;;;1.40;;
38427;SDS011;24211;49.980;19.776;2022-09-03T02:44:15;4.68;;;1.60;;
38427;SDS011;24211;49.980;19.776;2022-09-03T02:46:58;3.20;;;1.48;;
38427;SDS011;24211;49.980;19.776;2022-09-03T02:49:31;5.53;;;1.50;;
38427;SDS011;24211;49.980;19.776;2022-09-03T02:52:00;3.85;;;1.60;;
38427;SDS011;24211;49.980;19.776;2022-09-03T02:57:02;4.57;;;1.73;;
38427;SDS011;24211;49.980;19.776;2022-09-03T02:59:29;4.68;;;1.65;;
38427;SDS011;24211;49.980;19.776;2022-09-03T03:01:57;4.43;;;1.67;;
38427;SDS011;24211;49.980;19.776;2022-09-03T03:04:28;3.80;;;1.77;;
38427;SDS011;24211;49.980;19.776;2022-09-03T03:06:56;4.30;;;1.73;;
38427;SDS011;24211;49.980;19.776;2022-09-03T03:09:24;5.07;;;1.77;;
38427;SDS011;24211;49.980;19.776;2022-09-03T03:11:52;4.32;;;1.70;;
38427;SDS011;24211;49.980;19.776;2022-09-03T03:14:21;3.65;;;1.60;;
38427;SDS011;24211;49.980;19.776;2022-09-03T03:16:49;4.07;;;1.90;;
38427;SDS011;24211;49.980;19.776;2022-09-03T03:19:17;4.03;;;1.90;;
38427;SDS011;24211;49.980;19.776;2022-09-03T03:21:45;4.05;;;1.88;;
38427;SDS011;24211;49.980;19.776;2022-09-03T03:24:12;4.70;;;1.80;;
38427;SDS011;24211;49.980;19.776;2022-09-03T03:26:40;4.15;;;2.00;;
38427;SDS011;24211;49.980;19.776;2022-09-03T03:29:08;6.20;;;2.10;;
38427;SDS011;24211;49.980;19.776;2022-09-03T03:31:43;4.65;;;2.00;;
38427;SDS011;24211;49.980;19.776;2022-09-03T03:34:10;4.47;;;2.30;;
38427;SDS011;24211;49.980;19.776;2022-09-03T03:36:37;5.43;;;2.20;;
38427;SDS011;24211;49.980;19.776;2022-09-03T03:39:05;5.15;;;2.20;;
38427;SDS011;24211;49.980;19.776;2022-09-03T03:41:36;4.55;;;2.10;;
38427;SDS011;24211;49.980;19.776;2022-09-03T03:44:04;6.28;;;2.30;;
38427;SDS011;24211;49.980;19.776;2022-09-03T03:46:34;4.97;;;2.05;;
38427;SDS011;24211;49.980;19.776;2022-09-03T03:49:05;4.95;;;2.20;;
38427;SDS011;24211;49.980;19.776;2022-09-03T03:51:34;4.63;;;1.95;;
38427;SDS011;24211;49.980;19.776;2022-09-03T03:54:04;4.18;;;2.05;;
38427;SDS011;24211;49.980;19.776;2022-09-03T03:56:32;4.70;;;1.92;;
38427;SDS011;24211;49.980;19.776;2022-09-03T03:59:00;5.90;;;2.20;;
38427;SDS011;24211;49.980;19.776;2022-09-03T04:01:29;5.15;;;2.15;;
38427;SDS011;24211;49.980;19.776;2022-09-03T04:03:57;4.72;;;1.95;;
38427;SDS011;24211;49.980;19.776;2022-09-03T04:06:26;6.18;;;1.90;;
38427;SDS011;24211;49.980;19.776;2022-09-03T04:09:06;4.82;;;2.13;;
38427;SDS011;24211;49.980;19.776;2022-09-03T04:11:33;4.55;;;1.85;;
38427;SDS011;24211;49.980;19.776;2022-09-03T04:14:01;4.88;;;2.03;;
38427;SDS011;24211;49.980;19.776;2022-09-03T04:16:29;6.22;;;2.45;;
38427;SDS011;24211;49.980;19.776;2022-09-03T04:18:58;5.82;;;2.22;;
38427;SDS011;24211;49.980;19.776;2022-09-03T04:21:27;5.82;;;2.38;;
38427;SDS011;24211;49.980;19.776;2022-09-03T04:23:56;5.18;;;2.42;;
38427;SDS011;24211;49.980;19.776;2022-09-03T04:26:26;5.97;;;2.13;;
38427;SDS011;24211;49.980;19.776;2022-09-03T04:29:01;4.93;;;1.85;;
38427;SDS011;24211;49.980;19.776;2022-09-03T04:31:35;5.55;;;2.10;;
38427;SDS011;24211;49.980;19.776;2022-09-03T04:34:05;5.53;;;2.20;;
38427;SDS011;24211;49.980;19.776;2022-09-03T04:36:32;4.45;;;2.00;;
38427;SDS011;24211;49.980;19.776;2022-09-03T04:39:00;5.57;;;2.00;;
38427;SDS011;24211;49.980;19.776;2022-09-03T04:41:28;4.72;;;2.20;;
38427;SDS011;24211;49.980;19.776;2022-09-03T04:43:57;6.45;;;2.20;;
38427;SDS011;24211;49.980;19.776;2022-09-03T04:46:26;5.10;;;2.10;;
38427;SDS011;24211;49.980;19.776;2022-09-03T04:48:59;4.80;;;2.10;;
38427;SDS011;24211;49.980;19.776;2022-09-03T04:51:30;5.75;;;1.95;;
38427;SDS011;24211;49.980;19.776;2022-09-03T04:53:58;4.93;;;2.17;;
38427;SDS011;24211;49.980;19.776;2022-09-03T04:56:28;5.13;;;2.00;;
38427;SDS011;24211;49.980;19.776;2022-09-03T04:59:01;4.40;;;1.80;;
38427;SDS011;24211;49.980;19.776;2022-09-03T05:01:34;4.65;;;1.98;;
38427;SDS011;24211;49.980;19.776;2022-09-03T05:04:04;5.88;;;1.98;;
38427;SDS011;24211;49.980;19.776;2022-09-03T05:06:33;6.75;;;2.30;;
38427;SDS011;24211;49.980;19.776;2022-09-03T05:09:02;6.65;;;2.50;;
38427;SDS011;24211;49.980;19.776;2022-09-03T05:11:31;5.15;;;2.10;;
38427;SDS011;24211;49.980;19.776;2022-09-03T05:13:59;4.95;;;1.80;;
38427;SDS011;24211;49.980;19.776;2022-09-03T05:16:28;4.78;;;2.30;;
38427;SDS011;24211;49.980;19.776;2022-09-03T05:18:58;5.28;;;2.30;;
38427;SDS011;24211;49.980;19.776;2022-09-03T05:21:27;4.78;;;2.08;;
38427;SDS011;24211;49.980;19.776;2022-09-03T05:23:55;4.25;;;2.10;;
38427;SDS011;24211;49.980;19.776;2022-09-03T05:26:26;5.88;;;2.25;;
38427;SDS011;24211;49.980;19.776;2022-09-03T05:29:00;5.03;;;2.35;;
38427;SDS011;24211;49.980;19.776;2022-09-03T05:31:36;4.75;;;2.10;;
38427;SDS011;24211;49.980;19.776;2022-09-03T05:34:05;5.22;;;2.20;;
38427;SDS011;24211;49.980;19.776;2022-09-03T05:36:34;5.57;;;2.25;;
38427;SDS011;24211;49.980;19.776;2022-09-03T05:39:04;5.20;;;2.22;;
38427;SDS011;24211;49.980;19.776;2022-09-03T05:41:32;5.55;;;2.40;;
38427;SDS011;24211;49.980;19.776;2022-09-03T05:44:00;6.60;;;2.35;;
38427;SDS011;24211;49.980;19.776;2022-09-03T05:46:30;5.38;;;2.80;;
38427;SDS011;24211;49.980;19.776;2022-09-03T05:48:59;5.30;;;2.50;;
38427;SDS011;24211;49.980;19.776;2022-09-03T05:51:30;5.15;;;2.55;;
38427;SDS011;24211;49.980;19.776;2022-09-03T05:53:59;8.88;;;3.67;;
38427;SDS011;24211;49.980;19.776;2022-09-03T05:56:29;7.88;;;3.55;;
38427;SDS011;24211;49.980;19.776;2022-09-03T05:58:58;9.82;;;3.53;;
38427;SDS011;24211;49.980;19.776;2022-09-03T06:01:32;7.03;;;3.38;;
38427;SDS011;24211;49.980;19.776;2022-09-03T06:04:06;6.97;;;3.38;;
38427;SDS011;24211;49.980;19.776;2022-09-03T06:06:38;7.72;;;3.50;;
38427;SDS011;24211;49.980;19.776;2022-09-03T06:09:09;7.63;;;3.03;;
38427;SDS011;24211;49.980;19.776;2022-09-03T06:11:40;7.10;;;3.15;;
38427;SDS011;24211;49.980;19.776;2022-09-03T06:14:09;8.13;;;3.38;;
38427;SDS011;24211;49.980;19.776;2022-09-03T06:16:39;8.40;;;3.00;;
38427;SDS011;24211;49.980;19.776;2022-09-03T06:19:10;7.40;;;3.30;;
38427;SDS011;24211;49.980;19.776;2022-09-03T06:21:40;9.43;;;2.75;;
38427;SDS011;24211;49.980;19.776;2022-09-03T06:24:11;7.05;;;3.17;;
38427;SDS011;24211;49.980;19.776;2022-09-03T06:26:42;7.38;;;3.10;;
38427;SDS011;24211;49.980;19.776;2022-09-03T06:29:11;9.00;;;2.92;;
38427;SDS011;24211;49.980;19.776;2022-09-03T06:31:39;5.82;;;2.92;;
38427;SDS011;24211;49.980;19.776;2022-09-03T06:34:07;7.30;;;3.10;;
38427;SDS011;24211;49.980;19.776;2022-09-03T06:36:34;8.48;;;3.45;;
38427;SDS011;24211;49.980;19.776;2022-09-03T06:39:02;8.00;;;3.08;;
38427;SDS011;24211;49.980;19.776;2022-09-03T06:41:31;7.63;;;3.25;;
38427;SDS011;24211;49.980;19.776;2022-09-03T06:44:01;8.57;;;3.13;;
38427;SDS011;24211;49.980;19.776;2022-09-03T06:46:32;7.78;;;2.70;;
38427;SDS011;24211;49.980;19.776;2022-09-03T06:51:31;6.40;;;2.70;;
38427;SDS011;24211;49.980;19.776;2022-09-03T06:54:00;7.40;;;3.20;;
38427;SDS011;24211;49.980;19.776;2022-09-03T06:56:38;6.70;;;2.80;;
38427;SDS011;24211;49.980;19.776;2022-09-03T06:59:11;6.85;;;3.00;;
38427;SDS011;24211;49.980;19.776;2022-09-03T07:01:40;7.80;;;3.25;;
38427;SDS011;24211;49.980;19.776;2022-09-03T07:04:13;9.55;;;2.85;;
38427;SDS011;24211;49.980;19.776;2022-09-03T07:06:46;7.38;;;3.15;;
38427;SDS011;24211;49.980;19.776;2022-09-03T07:09:20;5.97;;;2.88;;
38427;SDS011;24211;49.980;19.776;2022-09-03T07:11:47;7.25;;;3.28;;
38427;SDS011;24211;49.980;19.776;2022-09-03T07:14:16;9.18;;;2.90;;
38427;SDS011;24211;49.980;19.776;2022-09-03T07:16:46;6.90;;;2.95;;
38427;SDS011;24211;49.980;19.776;2022-09-03T07:19:15;9.35;;;3.10;;
38427;SDS011;24211;49.980;19.776;2022-09-03T07:21:43;8.38;;;3.33;;
38427;SDS011;24211;49.980;19.776;2022-09-03T07:26:46;5.20;;;2.65;;
38427;SDS011;24211;49.980;19.776;2022-09-03T07:29:14;6.40;;;2.90;;
38427;SDS011;24211;49.980;19.776;2022-09-03T07:31:46;7.10;;;3.20;;
38427;SDS011;24211;49.980;19.776;2022-09-03T07:34:18;5.85;;;2.58;;
38427;SDS011;24211;49.980;19.776;2022-09-03T07:36:50;6.53;;;2.70;;
38427;SDS011;24211;49.980;19.776;2022-09-03T07:39:19;6.50;;;3.17;;
38427;SDS011;24211;49.980;19.776;2022-09-03T07:41:46;7.35;;;2.88;;
38427;SDS011;24211;49.980;19.776;2022-09-03T07:44:14;8.30;;;3.00;;
38427;SDS011;24211;49.980;19.776;2022-09-03T07:46:48;6.07;;;3.13;;
38427;SDS011;24211;49.980;19.776;2022-09-03T07:49:17;7.97;;;3.08;;
38427;SDS011;24211;49.980;19.776;2022-09-03T07:51:47;7.78;;;3.00;;
38427;SDS011;24211;49.980;19.776;2022-09-03T07:54:17;5.05;;;2.42;;
38427;SDS011;24211;49.980;19.776;2022-09-03T07:56:46;5.80;;;2.72;;
38427;SDS011;24211;49.980;19.776;2022-09-03T07:59:16;5.13;;;2.60;;
38427;SDS011;24211;49.980;19.776;2022-09-03T08:01:45;5.88;;;3.00;;
38427;SDS011;24211;49.980;19.776;2022-09-03T08:04:12;5.65;;;2.90;;
38427;SDS011;24211;49.980;19.776;2022-09-03T08:06:39;8.65;;;2.80;;
38427;SDS011;24211;49.980;19.776;2022-09-03T08:09:09;7.53;;;2.70;;
38427;SDS011;24211;49.980;19.776;2022-09-03T08:11:40;8.15;;;3.08;;
38427;SDS011;24211;49.980;19.776;2022-09-03T08:14:10;4.15;;;2.35;;
38427;SDS011;24211;49.980;19.776;2022-09-03T08:16:40;4.47;;;2.55;;
38427;SDS011;24211;49.980;19.776;2022-09-03T08:19:20;8.57;;;3.00;;
38427;SDS011;24211;49.980;19.776;2022-09-03T08:21:47;6.10;;;2.60;;
38427;SDS011;24211;49.980;19.776;2022-09-03T08:24:15;5.25;;;2.70;;
38427;SDS011;24211;49.980;19.776;2022-09-03T08:26:47;7.05;;;2.80;;
38427;SDS011;24211;49.980;19.776;2022-09-03T08:29:18;5.63;;;2.70;;
38427;SDS011;24211;49.980;19.776;2022-09-03T08:31:46;6.35;;;2.92;;
38427;SDS011;24211;49.980;19.776;2022-09-03T08:34:14;5.22;;;2.90;;
38427;SDS011;24211;49.980;19.776;2022-09-03T08:36:43;5.97;;;2.97;;
38427;SDS011;24211;49.980;19.776;2022-09-03T08:39:12;6.00;;;2.92;;
38427;SDS011;24211;49.980;19.776;2022-09-03T08:44:49;4.90;;;2.75;;
38427;SDS011;24211;49.980;19.776;2022-09-03T08:50:08;5.30;;;3.05;;
38427;SDS011;24211;49.980;19.776;2022-09-03T08:52:54;7.10;;;3.10;;
38427;SDS011;24211;49.980;19.776;2022-09-03T08:55:51;6.13;;;3.20;;
38427;SDS011;24211;49.980;19.776;2022-09-03T08:58:27;5.05;;;3.00;;
38427;SDS011;24211;49.980;19.776;2022-09-03T09:01:09;7.95;;;3.22;;
38427;SDS011;24211;49.980;19.776;2022-09-03T09:04:00;7.15;;;3.08;;
38427;SDS011;24211;49.980;19.776;2022-09-03T09:13:33;5.28;;;2.83;;
38427;SDS011;24211;49.980;19.776;2022-09-03T09:22:23;6.30;;;3.10;;
38427;SDS011;24211;49.980;19.776;2022-09-03T09:24:55;7.25;;;3.30;;
38427;SDS011;24211;49.980;19.776;2022-09-03T09:27:30;5.90;;;3.20;;
38427;SDS011;24211;49.980;19.776;2022-09-03T09:29:58;5.80;;;3.28;;
38427;SDS011;24211;49.980;19.776;2022-09-03T09:32:31;6.30;;;3.03;;
38427;SDS011;24211;49.980;19.776;2022-09-03T09:35:07;4.63;;;2.80;;
38427;SDS011;24211;49.980;19.776;2022-09-03T09:37:49;5.30;;;2.90;;
38427;SDS011;24211;49.980;19.776;2022-09-03T09:40:30;6.10;;;3.10;;
38427;SDS011;24211;49.980;19.776;2022-09-03T09:43:12;6.78;;;3.40;;
38427;SDS011;24211;49.980;19.776;2022-09-03T09:45:48;7.55;;;3.30;;
38427;SDS011;24211;49.980;19.776;2022-09-03T09:48:22;5.90;;;3.00;;
38427;SDS011;24211;49.980;19.776;2022-09-03T09:51:04;5.68;;;3.33;;
38427;SDS011;24211;49.980;19.776;2022-09-03T09:53:35;5.88;;;3.22;;
38427;SDS011;24211;49.980;19.776;2022-09-03T09:56:05;6.38;;;3.38;;
38427;SDS011;24211;49.980;19.776;2022-09-03T09:58:34;5.75;;;3.20;;
38427;SDS011;24211;49.980;19.776;2022-09-03T10:01:03;4.97;;;3.20;;
38427;SDS011;24211;49.980;19.776;2022-09-03T10:03:53;6.25;;;3.80;;
38427;SDS011;24211;49.980;19.776;2022-09-03T10:06:33;8.20;;;3.85;;
38427;SDS011;24211;49.980;19.776;2022-09-03T10:09:20;5.95;;;3.53;;
38427;SDS011;24211;49.980;19.776;2022-09-03T10:17:47;8.50;;;3.40;;
38427;SDS011;24211;49.980;19.776;2022-09-03T10:20:44;6.75;;;3.67;;
38427;SDS011;24211;49.980;19.776;2022-09-03T10:23:25;14.50;;;3.72;;
38427;SDS011;24211;49.980;19.776;2022-09-03T10:25:59;5.80;;;3.22;;
38427;SDS011;24211;49.980;19.776;2022-09-03T10:28:34;6.80;;;3.70;;
38427;SDS011;24211;49.980;19.776;2022-09-03T10:37:37;6.38;;;3.85;;
38427;SDS011;24211;49.980;19.776;2022-09-03T10:43:05;5.65;;;3.40;;
38427;SDS011;24211;49.980;19.776;2022-09-03T10:51:46;5.78;;;3.30;;
38427;SDS011;24211;49.980;19.776;2022-09-03T11:00:12;6.43;;;3.42;;
38427;SDS011;24211;49.980;19.776;2022-09-03T11:02:56;6.57;;;3.15;;
38427;SDS011;24211;49.980;19.776;2022-09-03T11:06:04;6.47;;;3.83;;
38427;SDS011;24211;49.980;19.776;2022-09-03T11:08:43;6.72;;;3.40;;
38427;SDS011;24211;49.980;19.776;2022-09-03T11:11:44;6.00;;;3.33;;
38427;SDS011;24211;49.980;19.776;2022-09-03T11:14:28;6.07;;;3.53;;
38427;SDS011;24211;49.980;19.776;2022-09-03T11:17:11;6.57;;;3.05;;
38427;SDS011;24211;49.980;19.776;2022-09-03T11:22:42;5.32;;;3.13;;
38427;SDS011;24211;49.980;19.776;2022-09-03T11:25:13;6.40;;;3.15;;
38427;SDS011;24211;49.980;19.776;2022-09-03T11:27:48;7.38;;;3.20;;
38427;SDS011;24211;49.980;19.776;2022-09-03T11:33:45;5.88;;;2.85;;
38427;SDS011;24211;49.980;19.776;2022-09-03T11:36:31;4.80;;;2.85;;
38427;SDS011;24211;49.980;19.776;2022-09-03T11:39:21;6.10;;;3.10;;
38427;SDS011;24211;49.980;19.776;2022-09-03T11:42:03;5.75;;;2.90;;
38427;SDS011;24211;49.980;19.776;2022-09-03T11:44:42;6.00;;;2.53;;
38427;SDS011;24211;49.980;19.776;2022-09-03T11:47:36;9.77;;;3.00;;
38427;SDS011;24211;49.980;19.776;2022-09-03T11:50:16;6.78;;;2.85;;
38427;SDS011;24211;49.980;19.776;2022-09-03T11:53:09;4.40;;;2.53;;
38427;SDS011;24211;49.980;19.776;2022-09-03T11:58:35;4.68;;;2.67;;
38427;SDS011;24211;49.980;19.776;2022-09-03T12:01:10;4.82;;;2.50;;
38427;SDS011;24211;49.980;19.776;2022-09-03T12:03:43;4.85;;;2.50;;
38427;SDS011;24211;49.980;19.776;2022-09-03T12:06:29;5.35;;;2.40;;
38427;SDS011;24211;49.980;19.776;2022-09-03T12:12:17;4.65;;;2.67;;
38427;SDS011;24211;49.980;19.776;2022-09-03T12:18:11;4.35;;;2.30;;
38427;SDS011;24211;49.980;19.776;2022-09-03T12:23:26;4.93;;;2.60;;
38427;SDS011;24211;49.980;19.776;2022-09-03T12:26:24;5.22;;;2.88;;
38427;SDS011;24211;49.980;19.776;2022-09-03T12:28:54;6.55;;;2.70;;
38427;SDS011;24211;49.980;19.776;2022-09-03T12:31:25;4.65;;;2.50;;
38427;SDS011;24211;49.980;19.776;2022-09-03T12:36:38;5.32;;;2.40;;
38427;SDS011;24211;49.980;19.776;2022-09-03T12:41:55;4.63;;;2.67;;
38427;SDS011;24211;49.980;19.776;2022-09-03T12:50:07;6.57;;;2.80;;
38427;SDS011;24211;49.980;19.776;2022-09-03T12:52:51;5.35;;;2.95;;
38427;SDS011;24211;49.980;19.776;2022-09-03T12:58:18;4.90;;;2.70;;
38427;SDS011;24211;49.980;19.776;2022-09-03T13:00:58;5.30;;;2.60;;
38427;SDS011;24211;49.980;19.776;2022-09-03T13:09:26;5.60;;;2.70;;
38427;SDS011;24211;49.980;19.776;2022-09-03T13:11:58;5.85;;;2.45;;
38427;SDS011;24211;49.980;19.776;2022-09-03T13:14:27;4.88;;;2.80;;
38427;SDS011;24211;49.980;19.776;2022-09-03T13:16:59;4.88;;;2.78;;
38427;SDS011;24211;49.980;19.776;2022-09-03T13:23:23;5.40;;;3.00;;
38427;SDS011;24211;49.980;19.776;2022-09-03T13:26:29;5.22;;;3.00;;
38427;SDS011;24211;49.980;19.776;2022-09-03T13:29:32;6.07;;;2.88;;
38427;SDS011;24211;49.980;19.776;2022-09-03T13:32:25;5.07;;;2.53;;
38427;SDS011;24211;49.980;19.776;2022-09-03T13:35:36;6.95;;;2.90;;
38427;SDS011;24211;49.980;19.776;2022-09-03T13:41:06;5.22;;;2.90;;
38427;SDS011;24211;49.980;19.776;2022-09-03T13:44:15;5.75;;;2.85;;
38427;SDS011;24211;49.980;19.776;2022-09-03T13:47:23;6.50;;;2.75;;
38427;SDS011;24211;49.980;19.776;2022-09-03T13:50:07;5.90;;;2.67;;
38427;SDS011;24211;49.980;19.776;2022-09-03T13:53:10;4.00;;;2.30;;
38427;SDS011;24211;49.980;19.776;2022-09-03T13:56:31;6.82;;;2.33;;
38427;SDS011;24211;49.980;19.776;2022-09-03T14:05:30;9.07;;;2.35;;
38427;SDS011;24211;49.980;19.776;2022-09-03T14:11:29;3.80;;;2.30;;
38427;SDS011;24211;49.980;19.776;2022-09-03T14:14:17;5.32;;;2.80;;
38427;SDS011;24211;49.980;19.776;2022-09-03T14:20:31;6.10;;;2.50;;
38427;SDS011;24211;49.980;19.776;2022-09-03T14:26:50;5.93;;;2.85;;
38427;SDS011;24211;49.980;19.776;2022-09-03T14:29:23;5.90;;;3.30;;
38427;SDS011;24211;49.980;19.776;2022-09-03T14:32:08;6.65;;;3.35;;
38427;SDS011;24211;49.980;19.776;2022-09-03T14:52:52;5.15;;;3.33;;
38427;SDS011;24211;49.980;19.776;2022-09-03T15:01:03;6.80;;;3.00;;
38427;SDS011;24211;49.980;19.776;2022-09-03T15:10:04;6.65;;;3.65;;
38427;SDS011;24211;49.980;19.776;2022-09-03T15:13:09;5.30;;;3.20;;
38427;SDS011;24211;49.980;19.776;2022-09-03T15:15:47;6.43;;;3.40;;
38427;SDS011;24211;49.980;19.776;2022-09-03T15:24:39;5.50;;;3.28;;
38427;SDS011;24211;49.980;19.776;2022-09-03T15:30:24;7.25;;;3.78;;
38427;SDS011;24211;49.980;19.776;2022-09-03T15:36:49;5.65;;;3.17;;
38427;SDS011;24211;49.980;19.776;2022-09-03T15:39:27;7.75;;;3.83;;
38427;SDS011;24211;49.980;19.776;2022-09-03T15:42:06;6.13;;;3.67;;
38427;SDS011;24211;49.980;19.776;2022-09-03T15:44:53;6.20;;;3.72;;
38427;SDS011;24211;49.980;19.776;2022-09-03T15:47:33;6.78;;;3.63;;
38427;SDS011;24211;49.980;19.776;2022-09-03T15:50:49;6.88;;;3.38;;
38427;SDS011;24211;49.980;19.776;2022-09-03T15:53:44;6.15;;;3.10;;
38427;SDS011;24211;49.980;19.776;2022-09-03T16:03:08;6.38;;;3.20;;
38427;SDS011;24211;49.980;19.776;2022-09-03T16:05:57;6.90;;;3.90;;
38427;SDS011;24211;49.980;19.776;2022-09-03T16:08:45;6.80;;;3.90;;
38427;SDS011;24211;49.980;19.776;2022-09-03T16:11:28;6.95;;;3.88;;
38427;SDS011;24211;49.980;19.776;2022-09-03T16:16:59;6.68;;;3.88;;
38427;SDS011;24211;49.980;19.776;2022-09-03T16:25:20;7.25;;;3.80;;
38427;SDS011;24211;49.980;19.776;2022-09-03T16:28:05;6.85;;;4.10;;
38427;SDS011;24211;49.980;19.776;2022-09-03T16:30:51;8.10;;;3.90;;
38427;SDS011;24211;49.980;19.776;2022-09-03T16:33:31;6.50;;;3.90;;
38427;SDS011;24211;49.980;19.776;2022-09-03T16:44:38;6.07;;;3.75;;
38427;SDS011;24211;49.980;19.776;2022-09-03T17:11:03;9.82;;;3.70;;
38427;SDS011;24211;49.980;19.776;2022-09-03T17:17:33;6.63;;;3.70;;
38427;SDS011;24211;49.980;19.776;2022-09-03T17:20:20;7.97;;;3.47;;
38427;SDS011;24211;49.980;19.776;2022-09-03T17:41:38;10.55;;;4.53;;
38427;SDS011;24211;49.980;19.776;2022-09-03T17:50:33;6.78;;;3.67;;
38427;SDS011;24211;49.980;19.776;2022-09-03T17:53:17;8.15;;;4.32;;
38427;SDS011;24211;49.980;19.776;2022-09-03T17:55:57;9.93;;;4.55;;
38427;SDS011;24211;49.980;19.776;2022-09-03T17:58:48;6.65;;;3.90;;
38427;SDS011;24211;49.980;19.776;2022-09-03T18:01:30;9.85;;;5.32;;
38427;SDS011;24211;49.980;19.776;2022-09-03T18:07:47;11.27;;;5.30;;
38427;SDS011;24211;49.980;19.776;2022-09-03T18:10:29;10.35;;;5.10;;
38427;SDS011;24211;49.980;19.776;2022-09-03T18:13:26;7.78;;;4.60;;
38427;SDS011;24211;49.980;19.776;2022-09-03T18:19:33;7.40;;;3.80;;
38427;SDS011;24211;49.980;19.776;2022-09-03T18:22:23;11.70;;;5.32;;
38427;SDS011;24211;49.980;19.776;2022-09-03T18:25:24;11.23;;;5.50;;
38427;SDS011;24211;49.980;19.776;2022-09-03T18:28:13;17.13;;;7.47;;
38427;SDS011;24211;49.980;19.776;2022-09-03T18:31:11;9.38;;;4.75;;
38427;SDS011;24211;49.980;19.776;2022-09-03T18:34:01;10.70;;;5.32;;
38427;SDS011;24211;49.980;19.776;2022-09-03T18:36:48;12.15;;;5.25;;
38427;SDS011;24211;49.980;19.776;2022-09-03T18:39:35;9.75;;;5.10;;
38427;SDS011;24211;49.980;19.776;2022-09-03T18:42:25;11.50;;;5.40;;
38427;SDS011;24211;49.980;19.776;2022-09-03T18:46:00;9.18;;;4.70;;
38427;SDS011;24211;49.980;19.776;2022-09-03T18:49:39;9.95;;;5.88;;
38427;SDS011;24211;49.980;19.776;2022-09-03T18:52:56;11.98;;;5.80;;
38427;SDS011;24211;49.980;19.776;2022-09-03T18:55:59;11.07;;;5.68;;
38427;SDS011;24211;49.980;19.776;2022-09-03T18:59:21;10.55;;;4.93;;
38427;SDS011;24211;49.980;19.776;2022-09-03T19:09:10;13.20;;;6.32;;
38427;SDS011;24211;49.980;19.776;2022-09-03T19:15:28;13.63;;;6.40;;
38427;SDS011;24211;49.980;19.776;2022-09-03T19:21:45;13.63;;;6.50;;
38427;SDS011;24211;49.980;19.776;2022-09-03T19:27:56;11.10;;;5.35;;
38427;SDS011;24211;49.980;19.776;2022-09-03T19:46:39;11.63;;;6.05;;
38427;SDS011;24211;49.980;19.776;2022-09-03T19:49:50;9.20;;;4.93;;
38427;SDS011;24211;49.980;19.776;2022-09-03T19:53:04;10.10;;;4.47;;
38427;SDS011;24211;49.980;19.776;2022-09-03T19:55:57;8.95;;;4.68;;
38427;SDS011;24211;49.980;19.776;2022-09-03T19:58:50;9.80;;;4.65;;
38427;SDS011;24211;49.980;19.776;2022-09-03T20:01:43;10.30;;;4.57;;
38427;SDS011;24211;49.980;19.776;2022-09-03T20:04:33;13.27;;;5.20;;
38427;SDS011;24211;49.980;19.776;2022-09-03T20:07:28;7.70;;;4.07;;
38427;SDS011;24211;49.980;19.776;2022-09-03T20:10:18;9.80;;;4.50;;
38427;SDS011;24211;49.980;19.776;2022-09-03T20:12:55;8.32;;;4.40;;
38427;SDS011;24211;49.980;19.776;2022-09-03T20:21:07;12.80;;;6.38;;
38427;SDS011;24211;49.980;19.776;2022-09-03T20:33:13;9.70;;;4.60;;
38427;SDS011;24211;49.980;19.776;2022-09-03T20:36:00;8.63;;;4.15;;
38427;SDS011;24211;49.980;19.776;2022-09-03T20:38:46;9.05;;;4.75;;
38427;SDS011;24211;49.980;19.776;2022-09-03T20:47:23;9.93;;;4.60;;
38427;SDS011;24211;49.980;19.776;2022-09-03T20:55:54;6.95;;;3.97;;
38427;SDS011;24211;49.980;19.776;2022-09-03T21:01:39;8.60;;;4.07;;
38427;SDS011;24211;49.980;19.776;2022-09-03T21:07:28;11.57;;;5.88;;
38427;SDS011;24211;49.980;19.776;2022-09-03T21:18:37;13.48;;;6.40;;
38427;SDS011;24211;49.980;19.776;2022-09-03T21:21:37;11.05;;;5.20;;
38427;SDS011;24211;49.980;19.776;2022-09-03T21:24:25;8.75;;;5.13;;
38427;SDS011;24211;49.980;19.776;2022-09-03T21:27:03;8.70;;;4.22;;
38427;SDS011;24211;49.980;19.776;2022-09-03T21:29:41;9.32;;;5.05;;
38427;SDS011;24211;49.980;19.776;2022-09-03T21:35:29;9.82;;;5.07;;
38427;SDS011;24211;49.980;19.776;2022-09-03T21:38:05;13.23;;;6.47;;
38427;SDS011;24211;49.980;19.776;2022-09-03T21:40:51;8.43;;;5.22;;
38427;SDS011;24211;49.980;19.776;2022-09-03T21:43:31;9.23;;;4.93;;
38427;SDS011;24211;49.980;19.776;2022-09-03T21:46:11;8.07;;;4.40;;